sensor_id;sensor_type;location;lat;lon;timestamp;P1;durP1;ratioP1;P2;durP2;ratioP2
51686;SDS011;37774;52.192;4.584;2023-09-07T00:01:57;13.80;;;8.68;;
51686;SDS011;37774;52.192;4.584;2023-09-07T00:04:44;12.27;;;7.82;;
51686;SDS011;37774;52.192;4.584;2023-09-07T00:07:29;14.32;;;8.13;;
51686;SDS011;37774;52.192;4.584;2023-09-07T00:10:15;14.95;;;8.52;;
51686;SDS011;37774;52.192;4.584;2023-09-07T00:13:01;12.20;;;8.15;;
51686;SDS011;37774;52.192;4.584;2023-09-07T00:15:47;14.75;;;8.90;;
51686;SDS011;37774;52.192;4.584;2023-09-07T00:18:32;18.83;;;10.27;;
51686;SDS011;37774;52.192;4.584;2023-09-07T00:21:19;16.77;;;8.73;;
51686;SDS011;37774;52.192;4.584;2023-09-07T00:24:05;16.00;;;9.18;;
51686;SDS011;37774;52.192;4.584;2023-09-07T00:26:51;24.92;;;10.73;;
51686;SDS011;37774;52.192;4.584;2023-09-07T00:29:37;21.20;;;9.68;;
51686;SDS011;37774;52.192;4.584;2023-09-07T00:32:22;14.80;;;9.02;;
51686;SDS011;37774;52.192;4.584;2023-09-07T00:35:08;15.32;;;9.18;;
51686;SDS011;37774;52.192;4.584;2023-09-07T00:37:55;18.52;;;8.73;;
51686;SDS011;37774;52.192;4.584;2023-09-07T00:40:42;15.23;;;8.52;;
51686;SDS011;37774;52.192;4.584;2023-09-07T00:43:28;13.00;;;7.88;;
51686;SDS011;37774;52.192;4.584;2023-09-07T00:46:14;14.65;;;7.78;;
51686;SDS011;37774;52.192;4.584;2023-09-07T00:49:00;18.98;;;8.55;;
51686;SDS011;37774;52.192;4.584;2023-09-07T00:51:45;13.88;;;8.13;;
51686;SDS011;37774;52.192;4.584;2023-09-07T00:54:32;17.00;;;9.07;;
51686;SDS011;37774;52.192;4.584;2023-09-07T00:57:18;12.98;;;7.97;;
51686;SDS011;37774;52.192;4.584;2023-09-07T01:00:04;11.50;;;7.95;;
51686;SDS011;37774;52.192;4.584;2023-09-07T01:02:51;12.95;;;7.80;;
51686;SDS011;37774;52.192;4.584;2023-09-07T01:05:40;13.57;;;8.30;;
51686;SDS011;37774;52.192;4.584;2023-09-07T01:08:32;12.35;;;7.72;;
51686;SDS011;37774;52.192;4.584;2023-09-07T01:11:22;15.55;;;7.60;;
51686;SDS011;37774;52.192;4.584;2023-09-07T01:14:08;12.68;;;8.20;;
51686;SDS011;37774;52.192;4.584;2023-09-07T01:16:54;15.18;;;8.80;;
51686;SDS011;37774;52.192;4.584;2023-09-07T01:19:39;14.60;;;7.88;;
51686;SDS011;37774;52.192;4.584;2023-09-07T01:22:26;16.20;;;8.20;;
51686;SDS011;37774;52.192;4.584;2023-09-07T01:25:12;13.32;;;8.10;;
51686;SDS011;37774;52.192;4.584;2023-09-07T01:27:58;15.85;;;9.15;;
51686;SDS011;37774;52.192;4.584;2023-09-07T01:30:43;16.90;;;8.35;;
51686;SDS011;37774;52.192;4.584;2023-09-07T01:33:30;13.57;;;7.50;;
51686;SDS011;37774;52.192;4.584;2023-09-07T01:36:16;14.57;;;8.65;;
51686;SDS011;37774;52.192;4.584;2023-09-07T01:39:03;15.07;;;8.95;;
51686;SDS011;37774;52.192;4.584;2023-09-07T01:41:49;13.98;;;7.97;;
51686;SDS011;37774;52.192;4.584;2023-09-07T01:44:35;17.73;;;8.63;;
51686;SDS011;37774;52.192;4.584;2023-09-07T01:47:22;11.60;;;7.78;;
51686;SDS011;37774;52.192;4.584;2023-09-07T01:50:07;13.70;;;7.75;;
51686;SDS011;37774;52.192;4.584;2023-09-07T01:52:53;13.57;;;8.38;;
51686;SDS011;37774;52.192;4.584;2023-09-07T01:55:40;13.98;;;8.73;;
51686;SDS011;37774;52.192;4.584;2023-09-07T01:58:25;16.30;;;9.40;;
51686;SDS011;37774;52.192;4.584;2023-09-07T02:01:19;18.33;;;10.80;;
51686;SDS011;37774;52.192;4.584;2023-09-07T02:04:06;18.00;;;9.65;;
51686;SDS011;37774;52.192;4.584;2023-09-07T02:06:51;14.93;;;9.40;;
51686;SDS011;37774;52.192;4.584;2023-09-07T02:09:37;18.95;;;9.68;;
51686;SDS011;37774;52.192;4.584;2023-09-07T02:12:24;20.63;;;9.02;;
51686;SDS011;37774;52.192;4.584;2023-09-07T02:15:09;24.20;;;10.60;;
51686;SDS011;37774;52.192;4.584;2023-09-07T02:17:54;16.33;;;9.35;;
51686;SDS011;37774;52.192;4.584;2023-09-07T02:20:40;19.70;;;9.73;;
51686;SDS011;37774;52.192;4.584;2023-09-07T02:23:25;19.60;;;9.52;;
51686;SDS011;37774;52.192;4.584;2023-09-07T02:26:11;17.23;;;10.02;;
51686;SDS011;37774;52.192;4.584;2023-09-07T02:28:58;15.45;;;9.52;;
51686;SDS011;37774;52.192;4.584;2023-09-07T02:31:43;20.98;;;9.63;;
51686;SDS011;37774;52.192;4.584;2023-09-07T02:34:28;14.93;;;9.43;;
51686;SDS011;37774;52.192;4.584;2023-09-07T02:37:15;15.45;;;9.60;;
51686;SDS011;37774;52.192;4.584;2023-09-07T02:40:00;15.25;;;9.52;;
51686;SDS011;37774;52.192;4.584;2023-09-07T02:42:50;14.45;;;9.18;;
51686;SDS011;37774;52.192;4.584;2023-09-07T02:45:37;16.77;;;9.75;;
51686;SDS011;37774;52.192;4.584;2023-09-07T02:48:23;19.15;;;10.65;;
51686;SDS011;37774;52.192;4.584;2023-09-07T02:51:09;16.75;;;10.00;;
51686;SDS011;37774;52.192;4.584;2023-09-07T02:53:55;22.92;;;10.38;;
51686;SDS011;37774;52.192;4.584;2023-09-07T02:56:41;15.30;;;9.57;;
51686;SDS011;37774;52.192;4.584;2023-09-07T02:59:27;13.23;;;8.95;;
51686;SDS011;37774;52.192;4.584;2023-09-07T03:02:13;17.08;;;10.38;;
51686;SDS011;37774;52.192;4.584;2023-09-07T03:04:59;19.80;;;11.40;;
51686;SDS011;37774;52.192;4.584;2023-09-07T03:07:45;17.95;;;10.50;;
51686;SDS011;37774;52.192;4.584;2023-09-07T03:10:31;21.25;;;9.82;;
51686;SDS011;37774;52.192;4.584;2023-09-07T03:13:16;23.90;;;12.00;;
51686;SDS011;37774;52.192;4.584;2023-09-07T03:16:02;21.42;;;10.55;;
51686;SDS011;37774;52.192;4.584;2023-09-07T03:18:50;17.48;;;10.38;;
51686;SDS011;37774;52.192;4.584;2023-09-07T03:21:35;17.88;;;9.63;;
51686;SDS011;37774;52.192;4.584;2023-09-07T03:24:21;15.73;;;9.82;;
51686;SDS011;37774;52.192;4.584;2023-09-07T03:27:06;15.65;;;10.55;;
51686;SDS011;37774;52.192;4.584;2023-09-07T03:29:52;15.02;;;9.80;;
51686;SDS011;37774;52.192;4.584;2023-09-07T03:32:37;16.60;;;9.52;;
51686;SDS011;37774;52.192;4.584;2023-09-07T03:35:24;15.43;;;9.70;;
51686;SDS011;37774;52.192;4.584;2023-09-07T03:38:09;17.52;;;10.23;;
51686;SDS011;37774;52.192;4.584;2023-09-07T03:40:55;16.20;;;10.63;;
51686;SDS011;37774;52.192;4.584;2023-09-07T03:43:40;18.60;;;10.23;;
51686;SDS011;37774;52.192;4.584;2023-09-07T03:46:26;17.52;;;9.88;;
51686;SDS011;37774;52.192;4.584;2023-09-07T03:49:11;20.35;;;10.75;;
51686;SDS011;37774;52.192;4.584;2023-09-07T03:51:58;16.45;;;10.30;;
51686;SDS011;37774;52.192;4.584;2023-09-07T03:54:43;19.90;;;10.27;;
51686;SDS011;37774;52.192;4.584;2023-09-07T03:57:29;25.67;;;12.15;;
51686;SDS011;37774;52.192;4.584;2023-09-07T04:00:14;16.33;;;10.27;;
51686;SDS011;37774;52.192;4.584;2023-09-07T04:03:01;20.15;;;10.60;;
51686;SDS011;37774;52.192;4.584;2023-09-07T04:05:47;14.32;;;9.38;;
51686;SDS011;37774;52.192;4.584;2023-09-07T04:08:34;24.48;;;11.75;;
51686;SDS011;37774;52.192;4.584;2023-09-07T04:11:19;19.85;;;11.10;;
51686;SDS011;37774;52.192;4.584;2023-09-07T04:14:05;21.30;;;10.98;;
51686;SDS011;37774;52.192;4.584;2023-09-07T04:16:50;18.80;;;11.35;;
51686;SDS011;37774;52.192;4.584;2023-09-07T04:19:36;27.27;;;12.95;;
51686;SDS011;37774;52.192;4.584;2023-09-07T04:22:22;18.90;;;10.93;;
51686;SDS011;37774;52.192;4.584;2023-09-07T04:25:09;22.98;;;11.82;;
51686;SDS011;37774;52.192;4.584;2023-09-07T04:27:54;18.88;;;11.43;;
51686;SDS011;37774;52.192;4.584;2023-09-07T04:30:41;24.98;;;12.32;;
51686;SDS011;37774;52.192;4.584;2023-09-07T04:33:26;26.45;;;12.18;;
51686;SDS011;37774;52.192;4.584;2023-09-07T04:36:14;19.05;;;10.75;;
51686;SDS011;37774;52.192;4.584;2023-09-07T04:39:00;16.45;;;10.50;;
51686;SDS011;37774;52.192;4.584;2023-09-07T04:41:48;24.70;;;10.85;;
51686;SDS011;37774;52.192;4.584;2023-09-07T04:44:36;21.20;;;11.65;;
51686;SDS011;37774;52.192;4.584;2023-09-07T04:47:21;21.83;;;12.27;;
51686;SDS011;37774;52.192;4.584;2023-09-07T04:50:07;23.65;;;13.13;;
51686;SDS011;37774;52.192;4.584;2023-09-07T04:52:53;19.85;;;11.23;;
51686;SDS011;37774;52.192;4.584;2023-09-07T04:55:38;18.00;;;10.50;;
51686;SDS011;37774;52.192;4.584;2023-09-07T04:58:25;21.88;;;11.77;;
51686;SDS011;37774;52.192;4.584;2023-09-07T05:01:11;25.05;;;12.38;;
51686;SDS011;37774;52.192;4.584;2023-09-07T05:03:56;23.63;;;13.57;;
51686;SDS011;37774;52.192;4.584;2023-09-07T05:06:42;24.52;;;13.75;;
51686;SDS011;37774;52.192;4.584;2023-09-07T05:09:27;24.38;;;13.68;;
51686;SDS011;37774;52.192;4.584;2023-09-07T05:12:13;25.77;;;14.20;;
51686;SDS011;37774;52.192;4.584;2023-09-07T05:15:03;23.85;;;13.68;;
51686;SDS011;37774;52.192;4.584;2023-09-07T05:17:51;23.73;;;12.70;;
51686;SDS011;37774;52.192;4.584;2023-09-07T05:20:36;22.58;;;11.95;;
51686;SDS011;37774;52.192;4.584;2023-09-07T05:23:22;25.15;;;13.82;;
51686;SDS011;37774;52.192;4.584;2023-09-07T05:28:55;25.95;;;14.43;;
51686;SDS011;37774;52.192;4.584;2023-09-07T05:31:42;21.17;;;12.52;;
51686;SDS011;37774;52.192;4.584;2023-09-07T05:34:27;25.20;;;14.23;;
51686;SDS011;37774;52.192;4.584;2023-09-07T05:37:13;24.23;;;13.75;;
51686;SDS011;37774;52.192;4.584;2023-09-07T05:39:58;27.13;;;13.68;;
51686;SDS011;37774;52.192;4.584;2023-09-07T05:42:44;27.80;;;14.23;;
51686;SDS011;37774;52.192;4.584;2023-09-07T05:45:29;29.38;;;14.70;;
51686;SDS011;37774;52.192;4.584;2023-09-07T05:48:16;22.55;;;12.40;;
51686;SDS011;37774;52.192;4.584;2023-09-07T05:51:02;28.48;;;14.25;;
51686;SDS011;37774;52.192;4.584;2023-09-07T05:53:47;23.88;;;14.27;;
51686;SDS011;37774;52.192;4.584;2023-09-07T05:56:33;26.33;;;13.75;;
51686;SDS011;37774;52.192;4.584;2023-09-07T05:59:18;23.58;;;13.55;;
51686;SDS011;37774;52.192;4.584;2023-09-07T06:02:04;24.13;;;13.68;;
51686;SDS011;37774;52.192;4.584;2023-09-07T06:04:50;22.92;;;13.25;;
51686;SDS011;37774;52.192;4.584;2023-09-07T06:07:37;26.10;;;14.57;;
51686;SDS011;37774;52.192;4.584;2023-09-07T06:10:22;24.63;;;13.73;;
51686;SDS011;37774;52.192;4.584;2023-09-07T06:13:08;19.67;;;12.50;;
51686;SDS011;37774;52.192;4.584;2023-09-07T06:15:53;30.90;;;14.30;;
51686;SDS011;37774;52.192;4.584;2023-09-07T06:18:39;23.15;;;13.98;;
51686;SDS011;37774;52.192;4.584;2023-09-07T06:21:26;21.50;;;14.15;;
51686;SDS011;37774;52.192;4.584;2023-09-07T06:24:11;25.15;;;13.05;;
51686;SDS011;37774;52.192;4.584;2023-09-07T06:26:56;28.13;;;14.65;;
51686;SDS011;37774;52.192;4.584;2023-09-07T06:29:42;28.30;;;15.85;;
51686;SDS011;37774;52.192;4.584;2023-09-07T06:32:27;23.80;;;14.75;;
51686;SDS011;37774;52.192;4.584;2023-09-07T06:35:13;25.33;;;15.43;;
51686;SDS011;37774;52.192;4.584;2023-09-07T06:37:59;26.98;;;14.68;;
51686;SDS011;37774;52.192;4.584;2023-09-07T06:40:47;25.38;;;15.52;;
51686;SDS011;37774;52.192;4.584;2023-09-07T06:43:33;32.55;;;15.68;;
51686;SDS011;37774;52.192;4.584;2023-09-07T06:46:18;27.27;;;15.40;;
51686;SDS011;37774;52.192;4.584;2023-09-07T06:49:04;27.85;;;14.35;;
51686;SDS011;37774;52.192;4.584;2023-09-07T06:51:50;23.50;;;14.23;;
51686;SDS011;37774;52.192;4.584;2023-09-07T06:54:37;28.65;;;14.70;;
51686;SDS011;37774;52.192;4.584;2023-09-07T06:57:23;27.08;;;14.32;;
51686;SDS011;37774;52.192;4.584;2023-09-07T07:00:08;21.92;;;12.82;;
51686;SDS011;37774;52.192;4.584;2023-09-07T07:05:42;20.70;;;12.73;;
51686;SDS011;37774;52.192;4.584;2023-09-07T07:08:28;31.83;;;13.10;;
51686;SDS011;37774;52.192;4.584;2023-09-07T07:11:15;21.13;;;12.65;;
51686;SDS011;37774;52.192;4.584;2023-09-07T07:14:00;20.77;;;13.27;;
51686;SDS011;37774;52.192;4.584;2023-09-07T07:16:49;21.20;;;12.80;;
51686;SDS011;37774;52.192;4.584;2023-09-07T07:19:35;24.33;;;12.80;;
51686;SDS011;37774;52.192;4.584;2023-09-07T07:22:20;24.63;;;13.75;;
51686;SDS011;37774;52.192;4.584;2023-09-07T07:25:06;21.35;;;12.85;;
51686;SDS011;37774;52.192;4.584;2023-09-07T07:27:53;26.80;;;12.98;;
51686;SDS011;37774;52.192;4.584;2023-09-07T07:30:39;21.50;;;12.15;;
51686;SDS011;37774;52.192;4.584;2023-09-07T07:33:24;24.40;;;11.95;;
51686;SDS011;37774;52.192;4.584;2023-09-07T07:36:10;22.75;;;11.70;;
51686;SDS011;37774;52.192;4.584;2023-09-07T07:38:55;26.48;;;11.90;;
51686;SDS011;37774;52.192;4.584;2023-09-07T07:41:41;22.63;;;11.13;;
51686;SDS011;37774;52.192;4.584;2023-09-07T07:44:30;24.83;;;11.50;;
51686;SDS011;37774;52.192;4.584;2023-09-07T07:47:16;16.45;;;10.13;;
51686;SDS011;37774;52.192;4.584;2023-09-07T07:50:01;16.95;;;9.90;;
51686;SDS011;37774;52.192;4.584;2023-09-07T07:52:47;17.33;;;9.63;;
51686;SDS011;37774;52.192;4.584;2023-09-07T07:55:34;16.85;;;8.43;;
51686;SDS011;37774;52.192;4.584;2023-09-07T07:58:22;13.57;;;8.63;;
51686;SDS011;37774;52.192;4.584;2023-09-07T08:01:14;22.60;;;9.23;;
51686;SDS011;37774;52.192;4.584;2023-09-07T08:04:04;16.55;;;8.52;;
51686;SDS011;37774;52.192;4.584;2023-09-07T08:06:50;16.05;;;8.20;;
51686;SDS011;37774;52.192;4.584;2023-09-07T08:09:40;14.15;;;9.27;;
51686;SDS011;37774;52.192;4.584;2023-09-07T08:12:25;22.27;;;9.38;;
51686;SDS011;37774;52.192;4.584;2023-09-07T08:15:11;19.80;;;8.30;;
51686;SDS011;37774;52.192;4.584;2023-09-07T08:20:44;13.95;;;6.85;;
51686;SDS011;37774;52.192;4.584;2023-09-07T08:23:29;21.58;;;8.50;;
51686;SDS011;37774;52.192;4.584;2023-09-07T08:26:15;10.88;;;6.60;;
51686;SDS011;37774;52.192;4.584;2023-09-07T08:29:01;12.70;;;6.85;;
51686;SDS011;37774;52.192;4.584;2023-09-07T08:31:50;14.45;;;7.35;;
51686;SDS011;37774;52.192;4.584;2023-09-07T08:34:37;10.00;;;6.43;;
51686;SDS011;37774;52.192;4.584;2023-09-07T08:37:24;13.15;;;6.97;;
51686;SDS011;37774;52.192;4.584;2023-09-07T08:40:10;15.10;;;6.95;;
51686;SDS011;37774;52.192;4.584;2023-09-07T08:42:55;12.98;;;7.15;;
51686;SDS011;37774;52.192;4.584;2023-09-07T08:45:42;11.30;;;6.22;;
51686;SDS011;37774;52.192;4.584;2023-09-07T08:48:33;13.85;;;6.85;;
51686;SDS011;37774;52.192;4.584;2023-09-07T08:51:21;15.68;;;7.25;;
51686;SDS011;37774;52.192;4.584;2023-09-07T08:54:07;17.23;;;7.22;;
51686;SDS011;37774;52.192;4.584;2023-09-07T08:59:40;13.65;;;7.45;;
51686;SDS011;37774;52.192;4.584;2023-09-07T09:02:26;10.95;;;5.63;;
51686;SDS011;37774;52.192;4.584;2023-09-07T09:05:12;9.73;;;5.30;;
51686;SDS011;37774;52.192;4.584;2023-09-07T09:08:03;13.73;;;6.00;;
51686;SDS011;37774;52.192;4.584;2023-09-07T09:10:58;9.00;;;4.97;;
51686;SDS011;37774;52.192;4.584;2023-09-07T09:13:46;10.85;;;5.28;;
51686;SDS011;37774;52.192;4.584;2023-09-07T09:16:32;13.07;;;5.55;;
51686;SDS011;37774;52.192;4.584;2023-09-07T09:19:18;16.92;;;4.60;;
51686;SDS011;37774;52.192;4.584;2023-09-07T09:22:03;7.65;;;4.75;;
51686;SDS011;37774;52.192;4.584;2023-09-07T09:24:51;14.18;;;4.75;;
51686;SDS011;37774;52.192;4.584;2023-09-07T09:27:36;10.30;;;4.72;;
51686;SDS011;37774;52.192;4.584;2023-09-07T09:30:21;6.57;;;4.38;;
51686;SDS011;37774;52.192;4.584;2023-09-07T09:33:07;9.77;;;4.25;;
51686;SDS011;37774;52.192;4.584;2023-09-07T09:35:53;10.23;;;4.22;;
51686;SDS011;37774;52.192;4.584;2023-09-07T09:38:40;6.07;;;3.17;;
51686;SDS011;37774;52.192;4.584;2023-09-07T09:41:35;13.43;;;4.20;;
51686;SDS011;37774;52.192;4.584;2023-09-07T09:44:23;10.90;;;4.15;;
51686;SDS011;37774;52.192;4.584;2023-09-07T09:47:09;8.98;;;4.30;;
51686;SDS011;37774;52.192;4.584;2023-09-07T09:49:57;6.57;;;3.92;;
51686;SDS011;37774;52.192;4.584;2023-09-07T09:52:43;7.60;;;4.03;;
51686;SDS011;37774;52.192;4.584;2023-09-07T09:55:31;4.88;;;3.33;;
51686;SDS011;37774;52.192;4.584;2023-09-07T09:58:18;8.23;;;4.13;;
51686;SDS011;37774;52.192;4.584;2023-09-07T10:01:03;8.18;;;3.90;;
51686;SDS011;37774;52.192;4.584;2023-09-07T10:03:51;9.68;;;3.78;;
51686;SDS011;37774;52.192;4.584;2023-09-07T10:06:39;6.72;;;3.85;;
51686;SDS011;37774;52.192;4.584;2023-09-07T10:09:35;8.02;;;4.63;;
51686;SDS011;37774;52.192;4.584;2023-09-07T10:12:26;5.05;;;3.00;;
51686;SDS011;37774;52.192;4.584;2023-09-07T10:15:21;8.57;;;3.60;;
51686;SDS011;37774;52.192;4.584;2023-09-07T10:18:09;15.60;;;3.50;;
51686;SDS011;37774;52.192;4.584;2023-09-07T10:20:56;6.93;;;3.83;;
51686;SDS011;37774;52.192;4.584;2023-09-07T10:23:44;5.25;;;3.25;;
51686;SDS011;37774;52.192;4.584;2023-09-07T10:29:15;7.10;;;3.33;;
51686;SDS011;37774;52.192;4.584;2023-09-07T10:32:06;6.70;;;3.78;;
51686;SDS011;37774;52.192;4.584;2023-09-07T10:34:52;5.28;;;3.53;;
51686;SDS011;37774;52.192;4.584;2023-09-07T10:37:38;9.57;;;3.95;;
51686;SDS011;37774;52.192;4.584;2023-09-07T10:40:24;9.40;;;4.10;;
51686;SDS011;37774;52.192;4.584;2023-09-07T10:43:09;7.57;;;3.63;;
51686;SDS011;37774;52.192;4.584;2023-09-07T10:45:55;13.88;;;3.67;;
51686;SDS011;37774;52.192;4.584;2023-09-07T10:48:43;8.57;;;3.60;;
51686;SDS011;37774;52.192;4.584;2023-09-07T10:51:28;6.50;;;3.20;;
51686;SDS011;37774;52.192;4.584;2023-09-07T10:54:14;5.97;;;2.85;;
51686;SDS011;37774;52.192;4.584;2023-09-07T10:57:07;7.10;;;3.63;;
51686;SDS011;37774;52.192;4.584;2023-09-07T10:59:55;6.78;;;3.60;;
51686;SDS011;37774;52.192;4.584;2023-09-07T11:02:41;5.82;;;3.10;;
51686;SDS011;37774;52.192;4.584;2023-09-07T11:05:29;3.33;;;2.70;;
51686;SDS011;37774;52.192;4.584;2023-09-07T11:08:15;6.55;;;2.65;;
51686;SDS011;37774;52.192;4.584;2023-09-07T11:11:01;4.50;;;2.88;;
51686;SDS011;37774;52.192;4.584;2023-09-07T11:13:47;5.97;;;2.88;;
51686;SDS011;37774;52.192;4.584;2023-09-07T11:16:33;8.50;;;2.20;;
51686;SDS011;37774;52.192;4.584;2023-09-07T11:19:21;3.47;;;2.43;;
51686;SDS011;37774;52.192;4.584;2023-09-07T11:22:10;4.88;;;2.83;;
51686;SDS011;37774;52.192;4.584;2023-09-07T11:24:55;5.38;;;3.25;;
51686;SDS011;37774;52.192;4.584;2023-09-07T11:27:41;4.28;;;2.75;;
51686;SDS011;37774;52.192;4.584;2023-09-07T11:30:27;4.40;;;2.97;;
51686;SDS011;37774;52.192;4.584;2023-09-07T11:33:12;6.30;;;2.63;;
51686;SDS011;37774;52.192;4.584;2023-09-07T11:36:02;8.38;;;2.50;;
51686;SDS011;37774;52.192;4.584;2023-09-07T11:38:49;4.38;;;3.00;;
51686;SDS011;37774;52.192;4.584;2023-09-07T11:44:20;11.57;;;3.40;;
51686;SDS011;37774;52.192;4.584;2023-09-07T11:47:05;9.68;;;2.95;;
51686;SDS011;37774;52.192;4.584;2023-09-07T11:49:51;8.27;;;2.90;;
51686;SDS011;37774;52.192;4.584;2023-09-07T11:52:36;6.38;;;2.65;;
51686;SDS011;37774;52.192;4.584;2023-09-07T11:55:23;6.00;;;2.72;;
51686;SDS011;37774;52.192;4.584;2023-09-07T12:00:54;10.20;;;3.05;;
51686;SDS011;37774;52.192;4.584;2023-09-07T12:03:39;8.00;;;2.97;;
51686;SDS011;37774;52.192;4.584;2023-09-07T12:06:25;4.75;;;2.45;;
51686;SDS011;37774;52.192;4.584;2023-09-07T12:09:11;4.78;;;2.90;;
51686;SDS011;37774;52.192;4.584;2023-09-07T12:14:44;3.83;;;2.80;;
51686;SDS011;37774;52.192;4.584;2023-09-07T12:17:30;7.20;;;2.75;;
51686;SDS011;37774;52.192;4.584;2023-09-07T12:20:15;4.05;;;2.67;;
51686;SDS011;37774;52.192;4.584;2023-09-07T12:23:05;5.35;;;2.83;;
51686;SDS011;37774;52.192;4.584;2023-09-07T12:25:50;3.67;;;2.67;;
51686;SDS011;37774;52.192;4.584;2023-09-07T12:28:37;5.25;;;2.65;;
51686;SDS011;37774;52.192;4.584;2023-09-07T12:31:23;4.55;;;2.75;;
51686;SDS011;37774;52.192;4.584;2023-09-07T12:34:08;8.20;;;3.15;;
51686;SDS011;37774;52.192;4.584;2023-09-07T12:36:53;6.22;;;2.55;;
51686;SDS011;37774;52.192;4.584;2023-09-07T12:39:39;5.93;;;3.10;;
51686;SDS011;37774;52.192;4.584;2023-09-07T12:42:24;4.95;;;2.80;;
51686;SDS011;37774;52.192;4.584;2023-09-07T12:45:11;8.40;;;2.95;;
51686;SDS011;37774;52.192;4.584;2023-09-07T12:47:58;5.70;;;2.92;;
51686;SDS011;37774;52.192;4.584;2023-09-07T12:50:44;5.50;;;2.67;;
51686;SDS011;37774;52.192;4.584;2023-09-07T12:53:30;5.40;;;2.72;;
51686;SDS011;37774;52.192;4.584;2023-09-07T12:56:16;6.97;;;2.55;;
51686;SDS011;37774;52.192;4.584;2023-09-07T12:59:02;6.75;;;2.75;;
51686;SDS011;37774;52.192;4.584;2023-09-07T13:01:49;4.00;;;3.03;;
51686;SDS011;37774;52.192;4.584;2023-09-07T13:04:37;8.57;;;2.97;;
51686;SDS011;37774;52.192;4.584;2023-09-07T13:07:22;6.45;;;2.65;;
51686;SDS011;37774;52.192;4.584;2023-09-07T13:10:08;10.15;;;2.97;;
51686;SDS011;37774;52.192;4.584;2023-09-07T13:15:39;5.30;;;2.97;;
51686;SDS011;37774;52.192;4.584;2023-09-07T13:18:26;4.95;;;2.63;;
51686;SDS011;37774;52.192;4.584;2023-09-07T13:23:56;4.53;;;2.55;;
51686;SDS011;37774;52.192;4.584;2023-09-07T13:26:46;6.20;;;2.88;;
51686;SDS011;37774;52.192;4.584;2023-09-07T13:29:31;6.38;;;2.90;;
51686;SDS011;37774;52.192;4.584;2023-09-07T13:32:17;5.78;;;2.65;;
51686;SDS011;37774;52.192;4.584;2023-09-07T13:35:04;10.60;;;3.30;;
51686;SDS011;37774;52.192;4.584;2023-09-07T13:37:50;8.20;;;2.80;;
51686;SDS011;37774;52.192;4.584;2023-09-07T13:40:36;5.67;;;3.27;;
51686;SDS011;37774;52.192;4.584;2023-09-07T13:43:21;6.82;;;2.92;;
51686;SDS011;37774;52.192;4.584;2023-09-07T13:46:07;7.72;;;3.05;;
51686;SDS011;37774;52.192;4.584;2023-09-07T13:48:52;4.78;;;3.10;;
51686;SDS011;37774;52.192;4.584;2023-09-07T13:51:39;10.95;;;3.22;;
51686;SDS011;37774;52.192;4.584;2023-09-07T13:54:25;7.68;;;3.55;;
51686;SDS011;37774;52.192;4.584;2023-09-07T13:57:10;7.55;;;3.00;;
51686;SDS011;37774;52.192;4.584;2023-09-07T13:59:56;10.90;;;3.40;;
51686;SDS011;37774;52.192;4.584;2023-09-07T14:02:41;6.35;;;3.20;;
51686;SDS011;37774;52.192;4.584;2023-09-07T14:05:27;11.65;;;3.08;;
51686;SDS011;37774;52.192;4.584;2023-09-07T14:08:13;4.25;;;2.45;;
51686;SDS011;37774;52.192;4.584;2023-09-07T14:10:59;9.95;;;3.40;;
51686;SDS011;37774;52.192;4.584;2023-09-07T14:13:44;4.28;;;2.83;;
51686;SDS011;37774;52.192;4.584;2023-09-07T14:16:30;8.88;;;3.45;;
51686;SDS011;37774;52.192;4.584;2023-09-07T14:19:17;5.57;;;3.13;;
51686;SDS011;37774;52.192;4.584;2023-09-07T14:22:03;5.03;;;3.10;;
51686;SDS011;37774;52.192;4.584;2023-09-07T14:24:50;4.43;;;3.15;;
51686;SDS011;37774;52.192;4.584;2023-09-07T14:30:20;8.02;;;3.30;;
51686;SDS011;37774;52.192;4.584;2023-09-07T14:33:06;7.88;;;3.08;;
51686;SDS011;37774;52.192;4.584;2023-09-07T14:35:51;5.53;;;3.00;;
51686;SDS011;37774;52.192;4.584;2023-09-07T14:41:26;4.97;;;3.30;;
51686;SDS011;37774;52.192;4.584;2023-09-07T14:44:14;4.50;;;3.53;;
51686;SDS011;37774;52.192;4.584;2023-09-07T14:46:59;8.30;;;3.22;;
51686;SDS011;37774;52.192;4.584;2023-09-07T14:49:44;10.02;;;3.35;;
51686;SDS011;37774;52.192;4.584;2023-09-07T14:52:30;5.22;;;3.03;;
51686;SDS011;37774;52.192;4.584;2023-09-07T14:55:21;6.07;;;3.22;;
51686;SDS011;37774;52.192;4.584;2023-09-07T14:58:08;3.47;;;2.95;;
51686;SDS011;37774;52.192;4.584;2023-09-07T15:00:53;7.63;;;3.47;;
51686;SDS011;37774;52.192;4.584;2023-09-07T15:03:39;8.18;;;3.28;;
51686;SDS011;37774;52.192;4.584;2023-09-07T15:06:24;5.80;;;3.13;;
51686;SDS011;37774;52.192;4.584;2023-09-07T15:09:10;7.57;;;3.28;;
51686;SDS011;37774;52.192;4.584;2023-09-07T15:11:55;9.30;;;3.92;;
51686;SDS011;37774;52.192;4.584;2023-09-07T15:14:42;7.70;;;3.53;;
51686;SDS011;37774;52.192;4.584;2023-09-07T15:17:28;5.47;;;3.83;;
51686;SDS011;37774;52.192;4.584;2023-09-07T15:20:14;5.43;;;3.38;;
51686;SDS011;37774;52.192;4.584;2023-09-07T15:22:59;5.93;;;3.05;;
51686;SDS011;37774;52.192;4.584;2023-09-07T15:25:44;5.07;;;3.42;;
51686;SDS011;37774;52.192;4.584;2023-09-07T15:28:30;5.38;;;3.65;;
51686;SDS011;37774;52.192;4.584;2023-09-07T15:31:17;7.55;;;3.03;;
51686;SDS011;37774;52.192;4.584;2023-09-07T15:34:02;8.55;;;3.00;;
51686;SDS011;37774;52.192;4.584;2023-09-07T15:36:47;10.00;;;3.13;;
51686;SDS011;37774;52.192;4.584;2023-09-07T15:39:33;4.53;;;2.95;;
51686;SDS011;37774;52.192;4.584;2023-09-07T15:42:19;7.15;;;3.75;;
51686;SDS011;37774;52.192;4.584;2023-09-07T15:45:04;10.05;;;3.65;;
51686;SDS011;37774;52.192;4.584;2023-09-07T15:47:52;5.20;;;3.50;;
51686;SDS011;37774;52.192;4.584;2023-09-07T15:50:39;7.07;;;3.33;;
51686;SDS011;37774;52.192;4.584;2023-09-07T15:53:24;6.78;;;3.95;;
51686;SDS011;37774;52.192;4.584;2023-09-07T15:56:10;7.03;;;3.67;;
51686;SDS011;37774;52.192;4.584;2023-09-07T15:58:55;10.40;;;3.10;;
51686;SDS011;37774;52.192;4.584;2023-09-07T16:01:41;10.43;;;3.28;;
51686;SDS011;37774;52.192;4.584;2023-09-07T16:04:28;14.68;;;5.97;;
51686;SDS011;37774;52.192;4.584;2023-09-07T16:07:15;13.98;;;3.15;;
51686;SDS011;37774;52.192;4.584;2023-09-07T16:12:46;11.73;;;3.38;;
51686;SDS011;37774;52.192;4.584;2023-09-07T16:15:31;11.18;;;3.85;;
51686;SDS011;37774;52.192;4.584;2023-09-07T16:18:17;5.72;;;3.25;;
51686;SDS011;37774;52.192;4.584;2023-09-07T16:21:05;10.00;;;3.45;;
51686;SDS011;37774;52.192;4.584;2023-09-07T16:23:53;6.18;;;3.78;;
51686;SDS011;37774;52.192;4.584;2023-09-07T16:26:39;7.35;;;3.47;;
51686;SDS011;37774;52.192;4.584;2023-09-07T16:29:24;8.25;;;3.72;;
51686;SDS011;37774;52.192;4.584;2023-09-07T16:32:09;5.07;;;3.42;;
51686;SDS011;37774;52.192;4.584;2023-09-07T16:34:55;13.02;;;3.53;;
51686;SDS011;37774;52.192;4.584;2023-09-07T16:37:42;7.00;;;3.90;;
51686;SDS011;37774;52.192;4.584;2023-09-07T16:40:27;10.10;;;3.38;;
51686;SDS011;37774;52.192;4.584;2023-09-07T16:43:12;6.18;;;3.72;;
51686;SDS011;37774;52.192;4.584;2023-09-07T16:45:58;5.47;;;3.58;;
51686;SDS011;37774;52.192;4.584;2023-09-07T16:48:43;9.48;;;3.60;;
51686;SDS011;37774;52.192;4.584;2023-09-07T16:51:29;6.55;;;3.80;;
51686;SDS011;37774;52.192;4.584;2023-09-07T16:54:15;6.70;;;3.65;;
51686;SDS011;37774;52.192;4.584;2023-09-07T16:57:01;5.57;;;3.20;;
51686;SDS011;37774;52.192;4.584;2023-09-07T16:59:49;8.57;;;3.83;;
51686;SDS011;37774;52.192;4.584;2023-09-07T17:02:35;7.60;;;3.90;;
51686;SDS011;37774;52.192;4.584;2023-09-07T17:05:20;8.60;;;4.03;;